sensor_id;sensor_type;location;lat;lon;timestamp;P1;durP1;ratioP1;P2;durP2;ratioP2
57443;SDS011;43289;52.962;6.196;2022-08-27T00:01:50;8.90;;;3.30;;
57443;SDS011;43289;52.962;6.196;2022-08-27T00:04:16;6.05;;;2.67;;
57443;SDS011;43289;52.962;6.196;2022-08-27T00:06:42;6.15;;;3.28;;
57443;SDS011;43289;52.962;6.196;2022-08-27T00:09:08;8.18;;;3.78;;
57443;SDS011;43289;52.962;6.196;2022-08-27T00:11:34;7.93;;;4.32;;
57443;SDS011;43289;52.962;6.196;2022-08-27T00:14:02;9.65;;;4.85;;
57443;SDS011;43289;52.962;6.196;2022-08-27T00:16:29;8.43;;;4.75;;
57443;SDS011;43289;52.962;6.196;2022-08-27T00:18:55;9.88;;;4.88;;
57443;SDS011;43289;52.962;6.196;2022-08-27T00:21:21;7.03;;;4.57;;
57443;SDS011;43289;52.962;6.196;2022-08-27T00:23:47;7.40;;;4.30;;
57443;SDS011;43289;52.962;6.196;2022-08-27T00:26:14;7.65;;;4.15;;
57443;SDS011;43289;52.962;6.196;2022-08-27T00:28:40;7.18;;;4.38;;
57443;SDS011;43289;52.962;6.196;2022-08-27T00:31:07;8.73;;;5.00;;
57443;SDS011;43289;52.962;6.196;2022-08-27T00:33:33;9.32;;;5.35;;
57443;SDS011;43289;52.962;6.196;2022-08-27T00:36:02;7.93;;;4.68;;
57443;SDS011;43289;52.962;6.196;2022-08-27T00:38:28;4.05;;;2.50;;
57443;SDS011;43289;52.962;6.196;2022-08-27T00:40:55;4.00;;;2.25;;
57443;SDS011;43289;52.962;6.196;2022-08-27T00:43:24;4.43;;;2.50;;
57443;SDS011;43289;52.962;6.196;2022-08-27T00:45:52;6.00;;;2.78;;
57443;SDS011;43289;52.962;6.196;2022-08-27T00:48:19;6.00;;;3.22;;
57443;SDS011;43289;52.962;6.196;2022-08-27T00:50:48;7.47;;;3.45;;
57443;SDS011;43289;52.962;6.196;2022-08-27T00:53:16;6.18;;;3.70;;
57443;SDS011;43289;52.962;6.196;2022-08-27T00:55:46;6.25;;;4.72;;
57443;SDS011;43289;52.962;6.196;2022-08-27T00:58:18;7.30;;;4.03;;
57443;SDS011;43289;52.962;6.196;2022-08-27T01:00:46;7.63;;;4.30;;
57443;SDS011;43289;52.962;6.196;2022-08-27T01:03:13;6.15;;;4.65;;
57443;SDS011;43289;52.962;6.196;2022-08-27T01:05:40;7.75;;;4.78;;
57443;SDS011;43289;52.962;6.196;2022-08-27T01:08:12;7.15;;;5.07;;
57443;SDS011;43289;52.962;6.196;2022-08-27T01:10:39;8.95;;;4.68;;
57443;SDS011;43289;52.962;6.196;2022-08-27T01:13:07;8.10;;;5.05;;
57443;SDS011;43289;52.962;6.196;2022-08-27T01:15:33;5.90;;;4.35;;
57443;SDS011;43289;52.962;6.196;2022-08-27T01:17:59;5.93;;;4.55;;
57443;SDS011;43289;52.962;6.196;2022-08-27T01:25:43;7.15;;;5.25;;
57443;SDS011;43289;52.962;6.196;2022-08-27T01:28:10;7.28;;;5.35;;
57443;SDS011;43289;52.962;6.196;2022-08-27T01:30:36;8.75;;;5.50;;
57443;SDS011;43289;52.962;6.196;2022-08-27T01:33:11;7.70;;;5.47;;
57443;SDS011;43289;52.962;6.196;2022-08-27T01:35:44;8.13;;;5.82;;
57443;SDS011;43289;52.962;6.196;2022-08-27T01:38:10;9.70;;;5.78;;
57443;SDS011;43289;52.962;6.196;2022-08-27T01:40:37;9.40;;;5.80;;
57443;SDS011;43289;52.962;6.196;2022-08-27T01:43:04;10.93;;;5.70;;
57443;SDS011;43289;52.962;6.196;2022-08-27T01:45:31;7.32;;;5.82;;
57443;SDS011;43289;52.962;6.196;2022-08-27T01:47:58;7.90;;;5.82;;
57443;SDS011;43289;52.962;6.196;2022-08-27T01:50:29;8.80;;;5.43;;
57443;SDS011;43289;52.962;6.196;2022-08-27T01:52:56;10.55;;;6.07;;
57443;SDS011;43289;52.962;6.196;2022-08-27T01:55:27;8.98;;;5.18;;
57443;SDS011;43289;52.962;6.196;2022-08-27T01:57:54;7.72;;;5.32;;
57443;SDS011;43289;52.962;6.196;2022-08-27T02:00:22;8.48;;;5.28;;
57443;SDS011;43289;52.962;6.196;2022-08-27T02:02:49;7.18;;;5.80;;
57443;SDS011;43289;52.962;6.196;2022-08-27T02:05:16;10.13;;;6.22;;
57443;SDS011;43289;52.962;6.196;2022-08-27T02:07:42;9.93;;;6.38;;
57443;SDS011;43289;52.962;6.196;2022-08-27T02:10:09;12.60;;;6.35;;
57443;SDS011;43289;52.962;6.196;2022-08-27T02:12:36;9.25;;;6.05;;
57443;SDS011;43289;52.962;6.196;2022-08-27T02:15:03;8.88;;;5.97;;
57443;SDS011;43289;52.962;6.196;2022-08-27T02:17:29;7.18;;;5.13;;
57443;SDS011;43289;52.962;6.196;2022-08-27T02:19:55;9.15;;;5.13;;
57443;SDS011;43289;52.962;6.196;2022-08-27T02:22:21;9.32;;;5.95;;
57443;SDS011;43289;52.962;6.196;2022-08-27T02:24:48;7.63;;;5.18;;
57443;SDS011;43289;52.962;6.196;2022-08-27T02:27:14;8.68;;;6.10;;
57443;SDS011;43289;52.962;6.196;2022-08-27T02:29:41;8.68;;;5.20;;
57443;SDS011;43289;52.962;6.196;2022-08-27T02:32:07;9.23;;;5.28;;
57443;SDS011;43289;52.962;6.196;2022-08-27T02:34:33;7.50;;;5.80;;
57443;SDS011;43289;52.962;6.196;2022-08-27T02:37:02;8.70;;;6.40;;
57443;SDS011;43289;52.962;6.196;2022-08-27T02:39:28;6.07;;;3.53;;
57443;SDS011;43289;52.962;6.196;2022-08-27T02:41:54;4.00;;;2.45;;
57443;SDS011;43289;52.962;6.196;2022-08-27T02:44:21;3.70;;;2.22;;
57443;SDS011;43289;52.962;6.196;2022-08-27T02:46:47;4.50;;;2.08;;
57443;SDS011;43289;52.962;6.196;2022-08-27T02:49:13;6.75;;;3.63;;
57443;SDS011;43289;52.962;6.196;2022-08-27T02:51:39;7.63;;;3.70;;
57443;SDS011;43289;52.962;6.196;2022-08-27T02:54:09;6.60;;;4.20;;
57443;SDS011;43289;52.962;6.196;2022-08-27T02:56:36;7.35;;;4.07;;
57443;SDS011;43289;52.962;6.196;2022-08-27T02:59:03;10.43;;;5.10;;
57443;SDS011;43289;52.962;6.196;2022-08-27T03:01:31;8.63;;;5.22;;
57443;SDS011;43289;52.962;6.196;2022-08-27T03:03:57;8.82;;;4.88;;
57443;SDS011;43289;52.962;6.196;2022-08-27T03:06:23;7.43;;;5.28;;
57443;SDS011;43289;52.962;6.196;2022-08-27T03:08:50;7.97;;;5.40;;
57443;SDS011;43289;52.962;6.196;2022-08-27T03:11:16;9.88;;;5.70;;
57443;SDS011;43289;52.962;6.196;2022-08-27T03:13:42;10.20;;;5.93;;
57443;SDS011;43289;52.962;6.196;2022-08-27T03:16:10;9.32;;;5.70;;
57443;SDS011;43289;52.962;6.196;2022-08-27T03:18:38;9.07;;;6.55;;
57443;SDS011;43289;52.962;6.196;2022-08-27T03:21:04;10.82;;;6.20;;
57443;SDS011;43289;52.962;6.196;2022-08-27T03:23:32;9.00;;;6.50;;
57443;SDS011;43289;52.962;6.196;2022-08-27T03:25:59;9.07;;;5.80;;
57443;SDS011;43289;52.962;6.196;2022-08-27T03:28:27;9.13;;;7.07;;
57443;SDS011;43289;52.962;6.196;2022-08-27T03:31:01;9.75;;;6.55;;
57443;SDS011;43289;52.962;6.196;2022-08-27T03:33:28;7.72;;;5.82;;
57443;SDS011;43289;52.962;6.196;2022-08-27T03:35:59;7.38;;;5.53;;
57443;SDS011;43289;52.962;6.196;2022-08-27T03:38:25;7.57;;;5.40;;
57443;SDS011;43289;52.962;6.196;2022-08-27T03:40:51;4.43;;;2.97;;
57443;SDS011;43289;52.962;6.196;2022-08-27T03:43:18;5.00;;;2.80;;
57443;SDS011;43289;52.962;6.196;2022-08-27T03:45:46;4.70;;;3.10;;
57443;SDS011;43289;52.962;6.196;2022-08-27T03:48:13;7.60;;;3.90;;
57443;SDS011;43289;52.962;6.196;2022-08-27T03:50:40;6.85;;;4.10;;
57443;SDS011;43289;52.962;6.196;2022-08-27T03:53:08;6.65;;;4.63;;
57443;SDS011;43289;52.962;6.196;2022-08-27T03:55:35;8.18;;;5.40;;
57443;SDS011;43289;52.962;6.196;2022-08-27T03:58:01;6.10;;;4.28;;
57443;SDS011;43289;52.962;6.196;2022-08-27T04:00:29;6.57;;;4.75;;
57443;SDS011;43289;52.962;6.196;2022-08-27T04:02:55;10.77;;;4.80;;
57443;SDS011;43289;52.962;6.196;2022-08-27T04:05:25;7.75;;;4.88;;
57443;SDS011;43289;52.962;6.196;2022-08-27T04:07:52;5.00;;;3.20;;
57443;SDS011;43289;52.962;6.196;2022-08-27T04:10:18;5.30;;;3.75;;
57443;SDS011;43289;52.962;6.196;2022-08-27T04:12:44;5.10;;;3.53;;
57443;SDS011;43289;52.962;6.196;2022-08-27T04:15:11;7.32;;;4.53;;
57443;SDS011;43289;52.962;6.196;2022-08-27T04:17:38;7.45;;;4.90;;
57443;SDS011;43289;52.962;6.196;2022-08-27T04:20:05;8.88;;;4.60;;
57443;SDS011;43289;52.962;6.196;2022-08-27T04:22:31;6.93;;;4.60;;
57443;SDS011;43289;52.962;6.196;2022-08-27T04:24:58;9.60;;;5.80;;
57443;SDS011;43289;52.962;6.196;2022-08-27T04:27:24;10.57;;;5.53;;
57443;SDS011;43289;52.962;6.196;2022-08-27T04:29:54;12.10;;;7.20;;
57443;SDS011;43289;52.962;6.196;2022-08-27T04:32:24;11.75;;;6.70;;
57443;SDS011;43289;52.962;6.196;2022-08-27T04:34:54;10.13;;;7.32;;
57443;SDS011;43289;52.962;6.196;2022-08-27T04:37:20;7.78;;;5.85;;
57443;SDS011;43289;52.962;6.196;2022-08-27T04:39:48;10.30;;;6.45;;
57443;SDS011;43289;52.962;6.196;2022-08-27T04:42:34;7.65;;;6.30;;
57443;SDS011;43289;52.962;6.196;2022-08-27T04:45:00;11.90;;;7.13;;
57443;SDS011;43289;52.962;6.196;2022-08-27T04:47:27;15.27;;;7.10;;
57443;SDS011;43289;52.962;6.196;2022-08-27T04:49:53;8.00;;;6.40;;
57443;SDS011;43289;52.962;6.196;2022-08-27T04:52:19;7.15;;;5.50;;
57443;SDS011;43289;52.962;6.196;2022-08-27T04:54:46;9.23;;;6.03;;
57443;SDS011;43289;52.962;6.196;2022-08-27T04:57:12;9.88;;;5.75;;
57443;SDS011;43289;52.962;6.196;2022-08-27T04:59:38;7.40;;;5.80;;
57443;SDS011;43289;52.962;6.196;2022-08-27T05:02:05;7.30;;;6.00;;
57443;SDS011;43289;52.962;6.196;2022-08-27T05:04:34;6.50;;;4.40;;
57443;SDS011;43289;52.962;6.196;2022-08-27T05:07:21;6.93;;;4.55;;
57443;SDS011;43289;52.962;6.196;2022-08-27T05:09:51;8.55;;;5.03;;
57443;SDS011;43289;52.962;6.196;2022-08-27T05:12:18;6.90;;;5.05;;
57443;SDS011;43289;52.962;6.196;2022-08-27T05:14:44;6.40;;;4.50;;
57443;SDS011;43289;52.962;6.196;2022-08-27T05:17:10;6.63;;;5.30;;
57443;SDS011;43289;52.962;6.196;2022-08-27T05:19:37;9.77;;;5.28;;
57443;SDS011;43289;52.962;6.196;2022-08-27T05:22:03;7.90;;;5.38;;
57443;SDS011;43289;52.962;6.196;2022-08-27T05:24:29;11.27;;;6.10;;
57443;SDS011;43289;52.962;6.196;2022-08-27T05:26:56;8.93;;;6.35;;
57443;SDS011;43289;52.962;6.196;2022-08-27T05:29:23;8.48;;;5.97;;
57443;SDS011;43289;52.962;6.196;2022-08-27T05:31:49;8.45;;;6.15;;
57443;SDS011;43289;52.962;6.196;2022-08-27T05:34:15;10.20;;;6.38;;
57443;SDS011;43289;52.962;6.196;2022-08-27T05:36:42;9.68;;;6.75;;
57443;SDS011;43289;52.962;6.196;2022-08-27T05:39:08;7.63;;;6.10;;
57443;SDS011;43289;52.962;6.196;2022-08-27T05:41:34;8.75;;;6.60;;
57443;SDS011;43289;52.962;6.196;2022-08-27T05:44:03;11.43;;;7.13;;
57443;SDS011;43289;52.962;6.196;2022-08-27T05:46:30;9.52;;;7.00;;
57443;SDS011;43289;52.962;6.196;2022-08-27T05:48:56;9.25;;;6.75;;
57443;SDS011;43289;52.962;6.196;2022-08-27T05:51:24;10.00;;;6.13;;
57443;SDS011;43289;52.962;6.196;2022-08-27T05:53:53;9.32;;;5.30;;
57443;SDS011;43289;52.962;6.196;2022-08-27T05:56:20;7.65;;;5.32;;
57443;SDS011;43289;52.962;6.196;2022-08-27T05:58:47;7.25;;;5.45;;
57443;SDS011;43289;52.962;6.196;2022-08-27T06:01:34;7.87;;;5.60;;
57443;SDS011;43289;52.962;6.196;2022-08-27T06:04:00;6.40;;;5.10;;
57443;SDS011;43289;52.962;6.196;2022-08-27T06:09:32;8.27;;;5.63;;
57443;SDS011;43289;52.962;6.196;2022-08-27T06:12:00;7.55;;;4.57;;
57443;SDS011;43289;52.962;6.196;2022-08-27T06:14:26;9.65;;;4.90;;
57443;SDS011;43289;52.962;6.196;2022-08-27T06:16:52;12.18;;;5.75;;
57443;SDS011;43289;52.962;6.196;2022-08-27T06:19:19;8.35;;;4.93;;
57443;SDS011;43289;52.962;6.196;2022-08-27T06:21:45;12.63;;;5.95;;
57443;SDS011;43289;52.962;6.196;2022-08-27T06:24:11;8.50;;;4.75;;
57443;SDS011;43289;52.962;6.196;2022-08-27T06:26:38;6.22;;;4.45;;
57443;SDS011;43289;52.962;6.196;2022-08-27T06:29:04;8.55;;;4.53;;
57443;SDS011;43289;52.962;6.196;2022-08-27T06:31:31;7.47;;;4.60;;
57443;SDS011;43289;52.962;6.196;2022-08-27T06:33:58;7.50;;;4.80;;
57443;SDS011;43289;52.962;6.196;2022-08-27T06:36:25;8.52;;;4.55;;
57443;SDS011;43289;52.962;6.196;2022-08-27T06:38:58;7.93;;;4.55;;
57443;SDS011;43289;52.962;6.196;2022-08-27T06:41:25;8.80;;;4.43;;
57443;SDS011;43289;52.962;6.196;2022-08-27T06:43:52;7.28;;;4.40;;
57443;SDS011;43289;52.962;6.196;2022-08-27T06:49:06;9.70;;;4.35;;
57443;SDS011;43289;52.962;6.196;2022-08-27T06:51:33;9.70;;;4.40;;
57443;SDS011;43289;52.962;6.196;2022-08-27T06:54:00;8.05;;;3.65;;
57443;SDS011;43289;52.962;6.196;2022-08-27T06:56:27;7.22;;;4.05;;
57443;SDS011;43289;52.962;6.196;2022-08-27T06:58:54;10.77;;;4.50;;
57443;SDS011;43289;52.962;6.196;2022-08-27T07:01:22;8.18;;;4.63;;
57443;SDS011;43289;52.962;6.196;2022-08-27T07:03:48;8.23;;;3.80;;
57443;SDS011;43289;52.962;6.196;2022-08-27T07:06:15;12.32;;;4.82;;
57443;SDS011;43289;52.962;6.196;2022-08-27T07:08:43;6.90;;;3.85;;
57443;SDS011;43289;52.962;6.196;2022-08-27T07:11:11;9.30;;;3.45;;
57443;SDS011;43289;52.962;6.196;2022-08-27T07:13:38;5.78;;;3.72;;
57443;SDS011;43289;52.962;6.196;2022-08-27T07:16:05;6.10;;;3.45;;
57443;SDS011;43289;52.962;6.196;2022-08-27T07:18:31;8.40;;;3.33;;
57443;SDS011;43289;52.962;6.196;2022-08-27T07:20:57;6.63;;;3.22;;
57443;SDS011;43289;52.962;6.196;2022-08-27T07:23:24;6.65;;;2.90;;
57443;SDS011;43289;52.962;6.196;2022-08-27T07:25:50;7.78;;;3.50;;
57443;SDS011;43289;52.962;6.196;2022-08-27T07:28:16;5.80;;;2.83;;
57443;SDS011;43289;52.962;6.196;2022-08-27T07:30:43;4.72;;;2.83;;
57443;SDS011;43289;52.962;6.196;2022-08-27T07:36:47;5.47;;;3.10;;
57443;SDS011;43289;52.962;6.196;2022-08-27T07:39:15;8.63;;;2.60;;
57443;SDS011;43289;52.962;6.196;2022-08-27T07:41:41;7.90;;;2.80;;
57443;SDS011;43289;52.962;6.196;2022-08-27T07:44:25;11.38;;;3.53;;
57443;SDS011;43289;52.962;6.196;2022-08-27T07:46:55;7.05;;;2.90;;
57443;SDS011;43289;52.962;6.196;2022-08-27T07:49:23;7.63;;;2.00;;
57443;SDS011;43289;52.962;6.196;2022-08-27T07:51:49;10.85;;;2.85;;
57443;SDS011;43289;52.962;6.196;2022-08-27T07:54:15;10.15;;;3.38;;
57443;SDS011;43289;52.962;6.196;2022-08-27T07:56:41;6.72;;;2.60;;
57443;SDS011;43289;52.962;6.196;2022-08-27T07:59:07;6.53;;;2.40;;
57443;SDS011;43289;52.962;6.196;2022-08-27T08:01:34;6.53;;;2.50;;
57443;SDS011;43289;52.962;6.196;2022-08-27T08:04:00;6.15;;;2.17;;
57443;SDS011;43289;52.962;6.196;2022-08-27T08:06:27;5.43;;;2.00;;
57443;SDS011;43289;52.962;6.196;2022-08-27T08:08:53;7.95;;;2.80;;
57443;SDS011;43289;52.962;6.196;2022-08-27T08:11:19;4.75;;;1.95;;
57443;SDS011;43289;52.962;6.196;2022-08-27T08:13:45;13.68;;;3.00;;
57443;SDS011;43289;52.962;6.196;2022-08-27T08:16:12;5.47;;;2.60;;
57443;SDS011;43289;52.962;6.196;2022-08-27T08:18:38;10.68;;;2.22;;
57443;SDS011;43289;52.962;6.196;2022-08-27T08:21:06;7.60;;;2.78;;
57443;SDS011;43289;52.962;6.196;2022-08-27T08:23:38;6.20;;;2.50;;
57443;SDS011;43289;52.962;6.196;2022-08-27T08:26:05;8.88;;;2.20;;
57443;SDS011;43289;52.962;6.196;2022-08-27T08:28:31;7.70;;;2.05;;
57443;SDS011;43289;52.962;6.196;2022-08-27T08:31:05;6.28;;;2.10;;
57443;SDS011;43289;52.962;6.196;2022-08-27T08:33:31;6.40;;;2.15;;
57443;SDS011;43289;52.962;6.196;2022-08-27T08:38:59;6.60;;;2.05;;
57443;SDS011;43289;52.962;6.196;2022-08-27T08:43:51;6.88;;;2.17;;
57443;SDS011;43289;52.962;6.196;2022-08-27T08:46:32;7.88;;;2.17;;
57443;SDS011;43289;52.962;6.196;2022-08-27T08:49:12;8.10;;;2.03;;
57443;SDS011;43289;52.962;6.196;2022-08-27T08:51:42;6.65;;;1.98;;
57443;SDS011;43289;52.962;6.196;2022-08-27T08:54:16;7.25;;;1.80;;
57443;SDS011;43289;52.962;6.196;2022-08-27T08:56:54;12.15;;;1.88;;
57443;SDS011;43289;52.962;6.196;2022-08-27T08:59:27;4.88;;;1.70;;
57443;SDS011;43289;52.962;6.196;2022-08-27T09:01:54;7.40;;;1.90;;
57443;SDS011;43289;52.962;6.196;2022-08-27T09:04:21;6.53;;;1.85;;
57443;SDS011;43289;52.962;6.196;2022-08-27T09:09:22;7.82;;;2.00;;
57443;SDS011;43289;52.962;6.196;2022-08-27T09:11:57;4.05;;;1.63;;
57443;SDS011;43289;52.962;6.196;2022-08-27T09:16:53;5.35;;;1.45;;
57443;SDS011;43289;52.962;6.196;2022-08-27T09:19:20;7.57;;;2.50;;
57443;SDS011;43289;52.962;6.196;2022-08-27T09:21:50;5.78;;;1.67;;
57443;SDS011;43289;52.962;6.196;2022-08-27T09:26:48;6.13;;;1.85;;
57443;SDS011;43289;52.962;6.196;2022-08-27T09:29:15;5.55;;;1.52;;
57443;SDS011;43289;52.962;6.196;2022-08-27T09:31:53;7.43;;;1.60;;
57443;SDS011;43289;52.962;6.196;2022-08-27T09:34:20;6.90;;;1.80;;
57443;SDS011;43289;52.962;6.196;2022-08-27T09:36:54;8.57;;;2.00;;
57443;SDS011;43289;52.962;6.196;2022-08-27T09:39:28;9.57;;;2.08;;
57443;SDS011;43289;52.962;6.196;2022-08-27T09:41:56;5.65;;;1.75;;
57443;SDS011;43289;52.962;6.196;2022-08-27T09:44:22;4.88;;;1.52;;
57443;SDS011;43289;52.962;6.196;2022-08-27T09:46:57;6.85;;;1.70;;
57443;SDS011;43289;52.962;6.196;2022-08-27T09:49:24;4.18;;;1.50;;
57443;SDS011;43289;52.962;6.196;2022-08-27T09:51:51;9.07;;;1.95;;
57443;SDS011;43289;52.962;6.196;2022-08-27T09:54:37;4.10;;;1.77;;
57443;SDS011;43289;52.962;6.196;2022-08-27T09:59:53;4.90;;;2.00;;
57443;SDS011;43289;52.962;6.196;2022-08-27T10:02:21;8.05;;;1.70;;
57443;SDS011;43289;52.962;6.196;2022-08-27T10:04:48;5.75;;;2.00;;
57443;SDS011;43289;52.962;6.196;2022-08-27T10:10:36;5.03;;;1.98;;
57443;SDS011;43289;52.962;6.196;2022-08-27T10:12:48;4.88;;;1.70;;
57443;SDS011;43289;52.962;6.196;2022-08-27T10:15:16;7.55;;;2.28;;
57443;SDS011;43289;52.962;6.196;2022-08-27T10:25:19;7.15;;;1.80;;
57443;SDS011;43289;52.962;6.196;2022-08-27T10:33:35;4.00;;;1.60;;
57443;SDS011;43289;52.962;6.196;2022-08-27T10:38:42;5.90;;;1.83;;
57443;SDS011;43289;52.962;6.196;2022-08-27T10:41:15;6.78;;;2.50;;
57443;SDS011;43289;52.962;6.196;2022-08-27T10:49:05;8.30;;;2.05;;
57443;SDS011;43289;52.962;6.196;2022-08-27T10:51:43;6.70;;;1.83;;
57443;SDS011;43289;52.962;6.196;2022-08-27T10:54:18;5.70;;;1.90;;
57443;SDS011;43289;52.962;6.196;2022-08-27T10:56:59;4.10;;;1.58;;
57443;SDS011;43289;52.962;6.196;2022-08-27T11:02:17;8.38;;;1.83;;
57443;SDS011;43289;52.962;6.196;2022-08-27T11:04:48;5.55;;;1.50;;
57443;SDS011;43289;52.962;6.196;2022-08-27T11:07:24;6.93;;;2.15;;
57443;SDS011;43289;52.962;6.196;2022-08-27T11:09:53;3.78;;;1.42;;
57443;SDS011;43289;52.962;6.196;2022-08-27T11:12:23;7.28;;;1.70;;
57443;SDS011;43289;52.962;6.196;2022-08-27T11:14:54;5.28;;;1.70;;
57443;SDS011;43289;52.962;6.196;2022-08-27T11:19:56;5.85;;;1.92;;
57443;SDS011;43289;52.962;6.196;2022-08-27T11:22:31;4.45;;;1.42;;
57443;SDS011;43289;52.962;6.196;2022-08-27T11:25:08;5.07;;;1.55;;
57443;SDS011;43289;52.962;6.196;2022-08-27T11:27:35;4.78;;;1.40;;
57443;SDS011;43289;52.962;6.196;2022-08-27T11:30:04;4.03;;;1.17;;
57443;SDS011;43289;52.962;6.196;2022-08-27T11:32:34;5.25;;;1.75;;
57443;SDS011;43289;52.962;6.196;2022-08-27T11:43:48;3.88;;;1.50;;
57443;SDS011;43289;52.962;6.196;2022-08-27T11:46:24;4.85;;;1.48;;
57443;SDS011;43289;52.962;6.196;2022-08-27T11:48:55;5.28;;;1.83;;
57443;SDS011;43289;52.962;6.196;2022-08-27T11:51:29;5.10;;;1.42;;
57443;SDS011;43289;52.962;6.196;2022-08-27T11:54:08;4.88;;;1.38;;
57443;SDS011;43289;52.962;6.196;2022-08-27T11:56:37;4.53;;;1.48;;
57443;SDS011;43289;52.962;6.196;2022-08-27T11:59:22;6.35;;;1.40;;
57443;SDS011;43289;52.962;6.196;2022-08-27T12:01:49;3.72;;;1.50;;
57443;SDS011;43289;52.962;6.196;2022-08-27T12:12:15;3.33;;;1.50;;
57443;SDS011;43289;52.962;6.196;2022-08-27T12:14:48;4.93;;;1.48;;
57443;SDS011;43289;52.962;6.196;2022-08-27T12:25:36;6.00;;;1.65;;
57443;SDS011;43289;52.962;6.196;2022-08-27T12:28:03;6.95;;;2.28;;
57443;SDS011;43289;52.962;6.196;2022-08-27T12:30:40;9.60;;;1.58;;
57443;SDS011;43289;52.962;6.196;2022-08-27T12:33:18;6.63;;;2.08;;
57443;SDS011;43289;52.962;6.196;2022-08-27T12:35:47;6.43;;;1.60;;
57443;SDS011;43289;52.962;6.196;2022-08-27T12:43:10;3.65;;;1.42;;
57443;SDS011;43289;52.962;6.196;2022-08-27T12:45:46;4.85;;;1.40;;
57443;SDS011;43289;52.962;6.196;2022-08-27T12:48:15;7.90;;;1.80;;
57443;SDS011;43289;52.962;6.196;2022-08-27T12:50:48;4.30;;;1.27;;
57443;SDS011;43289;52.962;6.196;2022-08-27T12:53:18;4.28;;;2.30;;
57443;SDS011;43289;52.962;6.196;2022-08-27T13:01:25;6.47;;;2.15;;
57443;SDS011;43289;52.962;6.196;2022-08-27T13:03:56;4.88;;;1.33;;
57443;SDS011;43289;52.962;6.196;2022-08-27T13:06:32;7.40;;;1.60;;
57443;SDS011;43289;52.962;6.196;2022-08-27T13:08:59;7.35;;;1.52;;
57443;SDS011;43289;52.962;6.196;2022-08-27T13:11:27;6.45;;;1.67;;
57443;SDS011;43289;52.962;6.196;2022-08-27T13:14:08;6.80;;;1.35;;
57443;SDS011;43289;52.962;6.196;2022-08-27T13:16:35;6.25;;;1.52;;
57443;SDS011;43289;52.962;6.196;2022-08-27T13:19:03;7.90;;;1.40;;
57443;SDS011;43289;52.962;6.196;2022-08-27T13:21:29;3.67;;;1.08;;
57443;SDS011;43289;52.962;6.196;2022-08-27T13:24:00;3.30;;;1.10;;
57443;SDS011;43289;52.962;6.196;2022-08-27T13:26:28;2.45;;;1.30;;
57443;SDS011;43289;52.962;6.196;2022-08-27T13:28:58;9.23;;;1.20;;
57443;SDS011;43289;52.962;6.196;2022-08-27T13:31:24;6.18;;;1.77;;
57443;SDS011;43289;52.962;6.196;2022-08-27T13:33:52;4.18;;;1.55;;
57443;SDS011;43289;52.962;6.196;2022-08-27T13:36:29;6.85;;;1.48;;
57443;SDS011;43289;52.962;6.196;2022-08-27T13:38:56;4.28;;;1.38;;
57443;SDS011;43289;52.962;6.196;2022-08-27T13:41:28;4.25;;;1.50;;
57443;SDS011;43289;52.962;6.196;2022-08-27T13:43:55;6.55;;;1.40;;
57443;SDS011;43289;52.962;6.196;2022-08-27T13:46:28;4.35;;;1.40;;
57443;SDS011;43289;52.962;6.196;2022-08-27T13:48:55;3.45;;;1.40;;
57443;SDS011;43289;52.962;6.196;2022-08-27T13:51:23;4.07;;;1.30;;
57443;SDS011;43289;52.962;6.196;2022-08-27T13:53:50;4.43;;;1.55;;
57443;SDS011;43289;52.962;6.196;2022-08-27T13:56:36;4.70;;;1.20;;
57443;SDS011;43289;52.962;6.196;2022-08-27T13:59:07;3.13;;;1.40;;
57443;SDS011;43289;52.962;6.196;2022-08-27T14:01:33;6.22;;;1.50;;
57443;SDS011;43289;52.962;6.196;2022-08-27T14:04:00;2.70;;;1.15;;
57443;SDS011;43289;52.962;6.196;2022-08-27T14:06:37;2.92;;;1.10;;
57443;SDS011;43289;52.962;6.196;2022-08-27T14:09:23;3.28;;;1.42;;
57443;SDS011;43289;52.962;6.196;2022-08-27T14:14:53;4.97;;;1.35;;
57443;SDS011;43289;52.962;6.196;2022-08-27T14:17:24;5.32;;;1.50;;
57443;SDS011;43289;52.962;6.196;2022-08-27T14:19:52;3.70;;;1.73;;
57443;SDS011;43289;52.962;6.196;2022-08-27T14:22:18;3.67;;;1.60;;
57443;SDS011;43289;52.962;6.196;2022-08-27T14:24:44;5.50;;;1.40;;
57443;SDS011;43289;52.962;6.196;2022-08-27T14:27:11;5.40;;;1.83;;
57443;SDS011;43289;52.962;6.196;2022-08-27T14:29:38;6.53;;;1.40;;
57443;SDS011;43289;52.962;6.196;2022-08-27T14:32:04;6.28;;;1.88;;
57443;SDS011;43289;52.962;6.196;2022-08-27T14:34:34;6.00;;;2.30;;
57443;SDS011;43289;52.962;6.196;2022-08-27T14:37:00;5.72;;;1.58;;
57443;SDS011;43289;52.962;6.196;2022-08-27T14:39:27;7.25;;;1.60;;
57443;SDS011;43289;52.962;6.196;2022-08-27T14:41:53;6.20;;;1.90;;
57443;SDS011;43289;52.962;6.196;2022-08-27T14:44:20;4.78;;;1.50;;
57443;SDS011;43289;52.962;6.196;2022-08-27T14:46:46;5.93;;;1.60;;
57443;SDS011;43289;52.962;6.196;2022-08-27T14:49:14;7.07;;;1.70;;
57443;SDS011;43289;52.962;6.196;2022-08-27T14:51:41;4.20;;;1.70;;
57443;SDS011;43289;52.962;6.196;2022-08-27T14:54:10;8.48;;;2.47;;
57443;SDS011;43289;52.962;6.196;2022-08-27T14:56:36;8.68;;;2.33;;
57443;SDS011;43289;52.962;6.196;2022-08-27T14:59:02;6.35;;;1.75;;
57443;SDS011;43289;52.962;6.196;2022-08-27T15:01:28;7.18;;;2.13;;
57443;SDS011;43289;52.962;6.196;2022-08-27T15:03:54;4.45;;;2.05;;
57443;SDS011;43289;52.962;6.196;2022-08-27T15:06:20;5.30;;;1.75;;
57443;SDS011;43289;52.962;6.196;2022-08-27T15:08:47;4.80;;;1.63;;
57443;SDS011;43289;52.962;6.196;2022-08-27T15:11:27;4.93;;;1.63;;
57443;SDS011;43289;52.962;6.196;2022-08-27T15:13:54;5.32;;;1.48;;
57443;SDS011;43289;52.962;6.196;2022-08-27T15:18:52;6.38;;;2.20;;
57443;SDS011;43289;52.962;6.196;2022-08-27T15:21:18;6.32;;;2.00;;
57443;SDS011;43289;52.962;6.196;2022-08-27T15:23:45;6.47;;;1.60;;
57443;SDS011;43289;52.962;6.196;2022-08-27T15:26:12;8.25;;;2.38;;
57443;SDS011;43289;52.962;6.196;2022-08-27T15:28:39;7.65;;;2.72;;
57443;SDS011;43289;52.962;6.196;2022-08-27T15:31:04;5.90;;;1.73;;
57443;SDS011;43289;52.962;6.196;2022-08-27T15:33:30;6.40;;;2.13;;
57443;SDS011;43289;52.962;6.196;2022-08-27T15:35:57;4.63;;;1.65;;
57443;SDS011;43289;52.962;6.196;2022-08-27T15:38:23;5.00;;;1.98;;
57443;SDS011;43289;52.962;6.196;2022-08-27T15:40:49;5.35;;;1.85;;
57443;SDS011;43289;52.962;6.196;2022-08-27T15:43:15;7.50;;;1.83;;
57443;SDS011;43289;52.962;6.196;2022-08-27T15:45:41;6.57;;;2.00;;
57443;SDS011;43289;52.962;6.196;2022-08-27T15:48:07;6.13;;;2.05;;
57443;SDS011;43289;52.962;6.196;2022-08-27T15:50:34;4.63;;;1.65;;
57443;SDS011;43289;52.962;6.196;2022-08-27T15:53:03;3.90;;;1.80;;
57443;SDS011;43289;52.962;6.196;2022-08-27T15:55:30;5.93;;;2.13;;
57443;SDS011;43289;52.962;6.196;2022-08-27T15:57:57;5.53;;;1.90;;
57443;SDS011;43289;52.962;6.196;2022-08-27T16:00:24;6.85;;;2.15;;
57443;SDS011;43289;52.962;6.196;2022-08-27T16:02:50;5.22;;;2.00;;
57443;SDS011;43289;52.962;6.196;2022-08-27T16:05:17;4.72;;;1.95;;
57443;SDS011;43289;52.962;6.196;2022-08-27T16:07:43;8.75;;;2.40;;
57443;SDS011;43289;52.962;6.196;2022-08-27T16:10:10;6.45;;;1.67;;
57443;SDS011;43289;52.962;6.196;2022-08-27T16:12:36;6.72;;;2.15;;
57443;SDS011;43289;52.962;6.196;2022-08-27T16:15:02;5.90;;;1.80;;
57443;SDS011;43289;52.962;6.196;2022-08-27T16:17:29;5.45;;;2.03;;
57443;SDS011;43289;52.962;6.196;2022-08-27T16:19:55;4.80;;;1.95;;
57443;SDS011;43289;52.962;6.196;2022-08-27T16:22:21;7.75;;;2.25;;
57443;SDS011;43289;52.962;6.196;2022-08-27T16:24:47;9.77;;;3.08;;
57443;SDS011;43289;52.962;6.196;2022-08-27T16:27:14;6.90;;;2.53;;
57443;SDS011;43289;52.962;6.196;2022-08-27T16:29:40;7.18;;;2.20;;
57443;SDS011;43289;52.962;6.196;2022-08-27T16:32:06;7.65;;;2.28;;
57443;SDS011;43289;52.962;6.196;2022-08-27T16:34:35;4.65;;;1.85;;